sensor_id;sensor_type;location;lat;lon;timestamp;P1;durP1;ratioP1;P2;durP2;ratioP2
35558;SDS011;21661;50.794;-1.066;2023-05-02T00:01:34;7.65;;;3.70;;
35558;SDS011;21661;50.794;-1.066;2023-05-02T00:04:00;6.88;;;3.83;;
35558;SDS011;21661;50.794;-1.066;2023-05-02T00:06:26;5.15;;;3.08;;
35558;SDS011;21661;50.794;-1.066;2023-05-02T00:08:51;7.47;;;4.18;;
35558;SDS011;21661;50.794;-1.066;2023-05-02T00:11:17;7.50;;;3.72;;
35558;SDS011;21661;50.794;-1.066;2023-05-02T00:13:42;6.57;;;3.95;;
35558;SDS011;21661;50.794;-1.066;2023-05-02T00:16:08;6.30;;;3.72;;
35558;SDS011;21661;50.794;-1.066;2023-05-02T00:18:35;6.57;;;3.30;;
35558;SDS011;21661;50.794;-1.066;2023-05-02T00:21:00;6.88;;;3.85;;
35558;SDS011;21661;50.794;-1.066;2023-05-02T00:23:26;6.20;;;4.05;;
35558;SDS011;21661;50.794;-1.066;2023-05-02T00:25:52;6.68;;;3.17;;
35558;SDS011;21661;50.794;-1.066;2023-05-02T00:28:17;5.30;;;3.22;;
35558;SDS011;21661;50.794;-1.066;2023-05-02T00:30:43;5.65;;;3.42;;
35558;SDS011;21661;50.794;-1.066;2023-05-02T00:33:10;5.05;;;3.40;;
35558;SDS011;21661;50.794;-1.066;2023-05-02T00:35:37;6.78;;;3.40;;
35558;SDS011;21661;50.794;-1.066;2023-05-02T00:38:03;5.03;;;3.20;;
35558;SDS011;21661;50.794;-1.066;2023-05-02T00:40:28;5.93;;;3.75;;
35558;SDS011;21661;50.794;-1.066;2023-05-02T00:42:54;5.13;;;3.45;;
35558;SDS011;21661;50.794;-1.066;2023-05-02T00:45:20;5.43;;;3.30;;
35558;SDS011;21661;50.794;-1.066;2023-05-02T00:47:46;7.65;;;3.63;;
35558;SDS011;21661;50.794;-1.066;2023-05-02T00:50:13;6.07;;;3.30;;
35558;SDS011;21661;50.794;-1.066;2023-05-02T00:52:38;6.35;;;3.40;;
35558;SDS011;21661;50.794;-1.066;2023-05-02T00:55:05;5.85;;;3.28;;
35558;SDS011;21661;50.794;-1.066;2023-05-02T00:57:32;5.07;;;3.30;;
35558;SDS011;21661;50.794;-1.066;2023-05-02T00:59:58;6.47;;;3.30;;
35558;SDS011;21661;50.794;-1.066;2023-05-02T01:02:33;6.10;;;3.53;;
35558;SDS011;21661;50.794;-1.066;2023-05-02T01:05:14;6.20;;;3.65;;
35558;SDS011;21661;50.794;-1.066;2023-05-02T01:10:52;4.60;;;3.47;;
35558;SDS011;21661;50.794;-1.066;2023-05-02T01:13:27;6.80;;;4.05;;
35558;SDS011;21661;50.794;-1.066;2023-05-02T01:15:56;8.30;;;3.92;;
35558;SDS011;21661;50.794;-1.066;2023-05-02T01:18:25;6.25;;;3.78;;
35558;SDS011;21661;50.794;-1.066;2023-05-02T01:20:59;6.20;;;3.93;;
35558;SDS011;21661;50.794;-1.066;2023-05-02T01:29:35;5.22;;;3.70;;
35558;SDS011;21661;50.794;-1.066;2023-05-02T01:32:03;6.50;;;4.03;;
35558;SDS011;21661;50.794;-1.066;2023-05-02T01:34:30;5.57;;;3.90;;
35558;SDS011;21661;50.794;-1.066;2023-05-02T01:36:57;6.25;;;3.63;;
35558;SDS011;21661;50.794;-1.066;2023-05-02T01:39:25;6.35;;;4.03;;
35558;SDS011;21661;50.794;-1.066;2023-05-02T01:41:52;6.28;;;4.50;;
35558;SDS011;21661;50.794;-1.066;2023-05-02T01:44:21;6.10;;;4.70;;
35558;SDS011;21661;50.794;-1.066;2023-05-02T01:46:48;6.88;;;4.80;;
35558;SDS011;21661;50.794;-1.066;2023-05-02T01:49:15;7.55;;;5.32;;
35558;SDS011;21661;50.794;-1.066;2023-05-02T01:51:44;6.53;;;4.65;;
35558;SDS011;21661;50.794;-1.066;2023-05-02T01:54:12;7.13;;;4.45;;
35558;SDS011;21661;50.794;-1.066;2023-05-02T01:56:39;7.55;;;4.60;;
35558;SDS011;21661;50.794;-1.066;2023-05-02T01:59:09;8.73;;;5.07;;
35558;SDS011;21661;50.794;-1.066;2023-05-02T02:01:37;7.50;;;4.47;;
35558;SDS011;21661;50.794;-1.066;2023-05-02T02:04:05;6.60;;;4.60;;
35558;SDS011;21661;50.794;-1.066;2023-05-02T02:06:33;6.57;;;4.55;;
35558;SDS011;21661;50.794;-1.066;2023-05-02T02:08:59;7.00;;;4.95;;
35558;SDS011;21661;50.794;-1.066;2023-05-02T02:11:26;6.90;;;4.38;;
35558;SDS011;21661;50.794;-1.066;2023-05-02T02:14:05;5.68;;;3.92;;
35558;SDS011;21661;50.794;-1.066;2023-05-02T02:16:36;6.90;;;4.55;;
35558;SDS011;21661;50.794;-1.066;2023-05-02T02:19:06;5.82;;;4.40;;
35558;SDS011;21661;50.794;-1.066;2023-05-02T02:21:34;7.45;;;4.50;;
35558;SDS011;21661;50.794;-1.066;2023-05-02T02:24:02;7.28;;;4.90;;
35558;SDS011;21661;50.794;-1.066;2023-05-02T02:26:30;8.05;;;4.88;;
35558;SDS011;21661;50.794;-1.066;2023-05-02T02:28:56;9.27;;;5.15;;
35558;SDS011;21661;50.794;-1.066;2023-05-02T02:31:28;8.18;;;5.55;;
35558;SDS011;21661;50.794;-1.066;2023-05-02T02:33:55;8.52;;;5.40;;
35558;SDS011;21661;50.794;-1.066;2023-05-02T02:36:23;8.30;;;5.55;;
35558;SDS011;21661;50.794;-1.066;2023-05-02T02:41:27;7.72;;;5.63;;
35558;SDS011;21661;50.794;-1.066;2023-05-02T02:49:31;9.48;;;6.20;;
35558;SDS011;21661;50.794;-1.066;2023-05-02T02:52:20;10.23;;;6.00;;
35558;SDS011;21661;50.794;-1.066;2023-05-02T02:54:57;9.63;;;6.60;;
35558;SDS011;21661;50.794;-1.066;2023-05-02T02:57:32;8.18;;;5.63;;
35558;SDS011;21661;50.794;-1.066;2023-05-02T03:00:10;10.23;;;6.18;;
35558;SDS011;21661;50.794;-1.066;2023-05-02T03:02:41;11.85;;;7.00;;
35558;SDS011;21661;50.794;-1.066;2023-05-02T03:05:09;11.63;;;6.63;;
35558;SDS011;21661;50.794;-1.066;2023-05-02T03:07:35;9.93;;;7.15;;
35558;SDS011;21661;50.794;-1.066;2023-05-02T03:10:01;9.88;;;6.38;;
35558;SDS011;21661;50.794;-1.066;2023-05-02T03:12:28;7.65;;;6.32;;
35558;SDS011;21661;50.794;-1.066;2023-05-02T03:14:56;10.20;;;7.65;;
35558;SDS011;21661;50.794;-1.066;2023-05-02T03:17:32;9.27;;;6.60;;
35558;SDS011;21661;50.794;-1.066;2023-05-02T03:19:58;11.30;;;6.95;;
35558;SDS011;21661;50.794;-1.066;2023-05-02T03:22:24;10.02;;;6.97;;
35558;SDS011;21661;50.794;-1.066;2023-05-02T03:24:49;13.40;;;7.43;;
35558;SDS011;21661;50.794;-1.066;2023-05-02T03:27:15;10.23;;;6.93;;
35558;SDS011;21661;50.794;-1.066;2023-05-02T03:29:40;10.73;;;7.10;;
35558;SDS011;21661;50.794;-1.066;2023-05-02T03:32:06;12.80;;;7.82;;
35558;SDS011;21661;50.794;-1.066;2023-05-02T03:34:32;9.50;;;7.40;;
35558;SDS011;21661;50.794;-1.066;2023-05-02T03:36:57;10.20;;;7.00;;
35558;SDS011;21661;50.794;-1.066;2023-05-02T03:39:23;10.13;;;7.15;;
35558;SDS011;21661;50.794;-1.066;2023-05-02T03:41:49;9.55;;;7.00;;
35558;SDS011;21661;50.794;-1.066;2023-05-02T03:44:14;12.30;;;7.28;;
35558;SDS011;21661;50.794;-1.066;2023-05-02T03:46:40;11.20;;;7.25;;
35558;SDS011;21661;50.794;-1.066;2023-05-02T03:49:05;12.38;;;7.03;;
35558;SDS011;21661;50.794;-1.066;2023-05-02T03:51:32;10.43;;;7.38;;
35558;SDS011;21661;50.794;-1.066;2023-05-02T03:53:59;11.77;;;7.13;;
35558;SDS011;21661;50.794;-1.066;2023-05-02T03:56:25;12.15;;;7.80;;
35558;SDS011;21661;50.794;-1.066;2023-05-02T03:58:51;11.13;;;7.68;;
35558;SDS011;21661;50.794;-1.066;2023-05-02T04:01:16;13.15;;;8.00;;
35558;SDS011;21661;50.794;-1.066;2023-05-02T04:03:42;10.73;;;7.40;;
35558;SDS011;21661;50.794;-1.066;2023-05-02T04:06:08;11.68;;;7.72;;
35558;SDS011;21661;50.794;-1.066;2023-05-02T04:08:33;10.52;;;7.38;;
35558;SDS011;21661;50.794;-1.066;2023-05-02T04:10:59;11.18;;;7.93;;
35558;SDS011;21661;50.794;-1.066;2023-05-02T04:13:25;12.48;;;8.25;;
35558;SDS011;21661;50.794;-1.066;2023-05-02T04:15:50;12.45;;;7.88;;
35558;SDS011;21661;50.794;-1.066;2023-05-02T04:18:16;12.38;;;7.75;;
35558;SDS011;21661;50.794;-1.066;2023-05-02T04:20:42;14.80;;;7.63;;
35558;SDS011;21661;50.794;-1.066;2023-05-02T04:23:09;13.88;;;8.50;;
35558;SDS011;21661;50.794;-1.066;2023-05-02T04:25:34;11.95;;;8.52;;
35558;SDS011;21661;50.794;-1.066;2023-05-02T04:28:00;12.88;;;8.00;;
35558;SDS011;21661;50.794;-1.066;2023-05-02T04:30:25;11.93;;;8.10;;
35558;SDS011;21661;50.794;-1.066;2023-05-02T04:32:51;12.60;;;7.82;;
35558;SDS011;21661;50.794;-1.066;2023-05-02T04:35:17;12.32;;;7.90;;
35558;SDS011;21661;50.794;-1.066;2023-05-02T04:37:43;14.13;;;9.00;;
35558;SDS011;21661;50.794;-1.066;2023-05-02T04:40:08;14.15;;;8.48;;
35558;SDS011;21661;50.794;-1.066;2023-05-02T04:42:35;14.45;;;8.98;;
35558;SDS011;21661;50.794;-1.066;2023-05-02T04:45:01;15.85;;;8.48;;
35558;SDS011;21661;50.794;-1.066;2023-05-02T04:47:26;16.50;;;8.85;;
35558;SDS011;21661;50.794;-1.066;2023-05-02T04:49:52;14.23;;;8.98;;
35558;SDS011;21661;50.794;-1.066;2023-05-02T04:52:17;14.65;;;9.13;;
35558;SDS011;21661;50.794;-1.066;2023-05-02T04:54:43;17.58;;;9.35;;
35558;SDS011;21661;50.794;-1.066;2023-05-02T04:57:09;15.77;;;9.32;;
35558;SDS011;21661;50.794;-1.066;2023-05-02T04:59:35;15.65;;;9.43;;
35558;SDS011;21661;50.794;-1.066;2023-05-02T05:02:02;15.98;;;9.93;;
35558;SDS011;21661;50.794;-1.066;2023-05-02T05:04:27;15.57;;;9.80;;
35558;SDS011;21661;50.794;-1.066;2023-05-02T05:06:53;17.98;;;9.88;;
35558;SDS011;21661;50.794;-1.066;2023-05-02T05:09:19;17.55;;;9.70;;
35558;SDS011;21661;50.794;-1.066;2023-05-02T05:11:44;16.00;;;10.38;;
35558;SDS011;21661;50.794;-1.066;2023-05-02T05:14:10;16.55;;;10.68;;
35558;SDS011;21661;50.794;-1.066;2023-05-02T05:16:36;17.15;;;10.85;;
35558;SDS011;21661;50.794;-1.066;2023-05-02T05:19:02;16.17;;;10.32;;
35558;SDS011;21661;50.794;-1.066;2023-05-02T05:21:28;18.90;;;11.23;;
35558;SDS011;21661;50.794;-1.066;2023-05-02T05:23:55;21.05;;;11.90;;
35558;SDS011;21661;50.794;-1.066;2023-05-02T05:26:20;20.33;;;12.02;;
35558;SDS011;21661;50.794;-1.066;2023-05-02T05:28:47;20.65;;;12.57;;
35558;SDS011;21661;50.794;-1.066;2023-05-02T05:31:14;21.33;;;12.10;;
35558;SDS011;21661;50.794;-1.066;2023-05-02T05:33:41;21.52;;;12.80;;
35558;SDS011;21661;50.794;-1.066;2023-05-02T05:36:07;21.50;;;13.07;;
35558;SDS011;21661;50.794;-1.066;2023-05-02T05:38:38;21.63;;;12.45;;
35558;SDS011;21661;50.794;-1.066;2023-05-02T05:41:04;23.58;;;13.25;;
35558;SDS011;21661;50.794;-1.066;2023-05-02T05:43:31;22.63;;;12.50;;
35558;SDS011;21661;50.794;-1.066;2023-05-02T05:45:57;23.70;;;12.38;;
35558;SDS011;21661;50.794;-1.066;2023-05-02T05:48:23;23.35;;;13.07;;
35558;SDS011;21661;50.794;-1.066;2023-05-02T05:50:48;20.88;;;13.43;;
35558;SDS011;21661;50.794;-1.066;2023-05-02T05:53:15;25.70;;;13.65;;
35558;SDS011;21661;50.794;-1.066;2023-05-02T05:55:42;23.75;;;12.63;;
35558;SDS011;21661;50.794;-1.066;2023-05-02T05:58:07;23.40;;;12.60;;
35558;SDS011;21661;50.794;-1.066;2023-05-02T06:00:33;25.42;;;13.50;;
35558;SDS011;21661;50.794;-1.066;2023-05-02T06:03:03;20.43;;;12.23;;
35558;SDS011;21661;50.794;-1.066;2023-05-02T06:05:29;22.05;;;13.48;;
35558;SDS011;21661;50.794;-1.066;2023-05-02T06:07:55;24.95;;;14.00;;
35558;SDS011;21661;50.794;-1.066;2023-05-02T06:10:22;25.40;;;14.30;;
35558;SDS011;21661;50.794;-1.066;2023-05-02T06:12:47;22.35;;;13.80;;
35558;SDS011;21661;50.794;-1.066;2023-05-02T06:15:13;25.60;;;14.82;;
35558;SDS011;21661;50.794;-1.066;2023-05-02T06:17:38;25.85;;;14.70;;
35558;SDS011;21661;50.794;-1.066;2023-05-02T06:20:04;26.48;;;15.55;;
35558;SDS011;21661;50.794;-1.066;2023-05-02T06:22:31;25.17;;;14.80;;
35558;SDS011;21661;50.794;-1.066;2023-05-02T06:24:56;26.05;;;15.15;;
35558;SDS011;21661;50.794;-1.066;2023-05-02T06:27:22;25.60;;;14.73;;
35558;SDS011;21661;50.794;-1.066;2023-05-02T06:29:51;25.63;;;15.00;;
35558;SDS011;21661;50.794;-1.066;2023-05-02T06:32:17;28.20;;;14.57;;
35558;SDS011;21661;50.794;-1.066;2023-05-02T06:34:43;27.67;;;15.25;;
35558;SDS011;21661;50.794;-1.066;2023-05-02T06:37:09;31.50;;;16.52;;
35558;SDS011;21661;50.794;-1.066;2023-05-02T06:39:35;31.52;;;15.85;;
35558;SDS011;21661;50.794;-1.066;2023-05-02T06:42:01;28.15;;;16.52;;
35558;SDS011;21661;50.794;-1.066;2023-05-02T06:44:27;31.77;;;17.45;;
35558;SDS011;21661;50.794;-1.066;2023-05-02T06:46:52;29.60;;;16.27;;
35558;SDS011;21661;50.794;-1.066;2023-05-02T06:49:19;29.38;;;16.60;;
35558;SDS011;21661;50.794;-1.066;2023-05-02T06:51:45;27.55;;;15.18;;
35558;SDS011;21661;50.794;-1.066;2023-05-02T06:54:11;35.30;;;17.20;;
35558;SDS011;21661;50.794;-1.066;2023-05-02T06:56:37;30.95;;;16.55;;
35558;SDS011;21661;50.794;-1.066;2023-05-02T06:59:02;31.13;;;16.77;;
35558;SDS011;21661;50.794;-1.066;2023-05-02T07:01:28;31.40;;;16.05;;
35558;SDS011;21661;50.794;-1.066;2023-05-02T07:03:53;28.00;;;15.32;;
35558;SDS011;21661;50.794;-1.066;2023-05-02T07:06:19;33.05;;;16.25;;
35558;SDS011;21661;50.794;-1.066;2023-05-02T07:08:45;33.75;;;17.05;;
35558;SDS011;21661;50.794;-1.066;2023-05-02T07:11:11;33.10;;;16.35;;
35558;SDS011;21661;50.794;-1.066;2023-05-02T07:13:36;33.63;;;16.05;;
35558;SDS011;21661;50.794;-1.066;2023-05-02T07:16:02;30.63;;;16.27;;
35558;SDS011;21661;50.794;-1.066;2023-05-02T07:18:28;29.98;;;14.98;;
35558;SDS011;21661;50.794;-1.066;2023-05-02T07:20:53;34.42;;;15.70;;
35558;SDS011;21661;50.794;-1.066;2023-05-02T07:23:19;29.80;;;15.75;;
35558;SDS011;21661;50.794;-1.066;2023-05-02T07:25:46;27.13;;;15.45;;
35558;SDS011;21661;50.794;-1.066;2023-05-02T07:28:12;28.77;;;14.85;;
35558;SDS011;21661;50.794;-1.066;2023-05-02T07:30:37;30.05;;;13.90;;
35558;SDS011;21661;50.794;-1.066;2023-05-02T07:33:03;25.95;;;14.35;;
35558;SDS011;21661;50.794;-1.066;2023-05-02T07:35:29;24.52;;;14.40;;
35558;SDS011;21661;50.794;-1.066;2023-05-02T07:37:54;28.10;;;14.38;;
35558;SDS011;21661;50.794;-1.066;2023-05-02T07:40:20;26.38;;;14.75;;
35558;SDS011;21661;50.794;-1.066;2023-05-02T07:42:46;24.55;;;13.85;;
35558;SDS011;21661;50.794;-1.066;2023-05-02T07:45:12;33.20;;;15.43;;
35558;SDS011;21661;50.794;-1.066;2023-05-02T07:47:38;26.30;;;13.50;;
35558;SDS011;21661;50.794;-1.066;2023-05-02T07:50:04;26.98;;;14.18;;
35558;SDS011;21661;50.794;-1.066;2023-05-02T07:52:30;22.92;;;13.52;;
35558;SDS011;21661;50.794;-1.066;2023-05-02T07:54:56;23.20;;;13.88;;
35558;SDS011;21661;50.794;-1.066;2023-05-02T07:57:22;26.83;;;14.43;;
35558;SDS011;21661;50.794;-1.066;2023-05-02T07:59:49;25.83;;;13.82;;
35558;SDS011;21661;50.794;-1.066;2023-05-02T08:02:15;23.63;;;13.60;;
35558;SDS011;21661;50.794;-1.066;2023-05-02T08:04:43;23.90;;;13.95;;
35558;SDS011;21661;50.794;-1.066;2023-05-02T08:07:09;22.10;;;12.65;;
35558;SDS011;21661;50.794;-1.066;2023-05-02T08:09:35;24.83;;;12.82;;
35558;SDS011;21661;50.794;-1.066;2023-05-02T08:12:00;19.98;;;12.43;;
35558;SDS011;21661;50.794;-1.066;2023-05-02T08:14:27;22.73;;;13.23;;
35558;SDS011;21661;50.794;-1.066;2023-05-02T08:16:53;23.02;;;13.32;;
35558;SDS011;21661;50.794;-1.066;2023-05-02T08:19:18;20.17;;;12.10;;
35558;SDS011;21661;50.794;-1.066;2023-05-02T08:21:44;24.13;;;13.80;;
35558;SDS011;21661;50.794;-1.066;2023-05-02T08:24:09;25.20;;;14.10;;
35558;SDS011;21661;50.794;-1.066;2023-05-02T08:26:35;23.10;;;13.35;;
35558;SDS011;21661;50.794;-1.066;2023-05-02T08:29:01;23.45;;;12.88;;
35558;SDS011;21661;50.794;-1.066;2023-05-02T08:31:28;21.95;;;11.95;;
35558;SDS011;21661;50.794;-1.066;2023-05-02T08:33:54;22.83;;;12.05;;
35558;SDS011;21661;50.794;-1.066;2023-05-02T08:36:20;21.40;;;11.77;;
35558;SDS011;21661;50.794;-1.066;2023-05-02T08:38:45;20.98;;;12.20;;
35558;SDS011;21661;50.794;-1.066;2023-05-02T08:41:15;18.58;;;11.25;;
35558;SDS011;21661;50.794;-1.066;2023-05-02T08:43:42;18.73;;;10.77;;
35558;SDS011;21661;50.794;-1.066;2023-05-02T08:46:12;18.50;;;11.32;;
35558;SDS011;21661;50.794;-1.066;2023-05-02T08:51:09;22.75;;;11.30;;
35558;SDS011;21661;50.794;-1.066;2023-05-02T08:53:36;18.23;;;11.07;;
35558;SDS011;21661;50.794;-1.066;2023-05-02T08:56:03;18.65;;;11.23;;
35558;SDS011;21661;50.794;-1.066;2023-05-02T08:58:30;19.73;;;11.15;;
35558;SDS011;21661;50.794;-1.066;2023-05-02T09:00:56;25.75;;;11.98;;
35558;SDS011;21661;50.794;-1.066;2023-05-02T09:03:30;21.20;;;11.75;;
35558;SDS011;21661;50.794;-1.066;2023-05-02T09:08:31;21.63;;;12.38;;
35558;SDS011;21661;50.794;-1.066;2023-05-02T09:10:57;20.38;;;10.88;;
35558;SDS011;21661;50.794;-1.066;2023-05-02T09:13:27;22.27;;;11.50;;
35558;SDS011;21661;50.794;-1.066;2023-05-02T09:16:00;18.88;;;11.55;;
35558;SDS011;21661;50.794;-1.066;2023-05-02T09:18:31;23.08;;;11.63;;
35558;SDS011;21661;50.794;-1.066;2023-05-02T09:21:08;22.23;;;11.32;;
35558;SDS011;21661;50.794;-1.066;2023-05-02T09:23:42;21.95;;;11.60;;
35558;SDS011;21661;50.794;-1.066;2023-05-02T09:26:33;20.30;;;11.07;;
35558;SDS011;21661;50.794;-1.066;2023-05-02T09:29:00;16.50;;;10.52;;
35558;SDS011;21661;50.794;-1.066;2023-05-02T09:31:27;21.48;;;10.30;;
35558;SDS011;21661;50.794;-1.066;2023-05-02T09:34:08;19.38;;;9.65;;
35558;SDS011;21661;50.794;-1.066;2023-05-02T09:36:39;19.70;;;9.65;;
35558;SDS011;21661;50.794;-1.066;2023-05-02T09:39:10;19.73;;;9.77;;
35558;SDS011;21661;50.794;-1.066;2023-05-02T09:41:47;15.25;;;9.27;;
35558;SDS011;21661;50.794;-1.066;2023-05-02T09:44:14;17.95;;;9.18;;
35558;SDS011;21661;50.794;-1.066;2023-05-02T09:46:44;16.33;;;9.35;;
35558;SDS011;21661;50.794;-1.066;2023-05-02T09:49:10;16.95;;;8.50;;
35558;SDS011;21661;50.794;-1.066;2023-05-02T09:51:36;14.68;;;8.38;;
35558;SDS011;21661;50.794;-1.066;2023-05-02T09:54:02;14.60;;;9.15;;
35558;SDS011;21661;50.794;-1.066;2023-05-02T09:56:28;17.67;;;8.70;;
35558;SDS011;21661;50.794;-1.066;2023-05-02T09:59:12;14.25;;;8.38;;
35558;SDS011;21661;50.794;-1.066;2023-05-02T10:01:39;17.15;;;9.25;;
35558;SDS011;21661;50.794;-1.066;2023-05-02T10:04:09;16.67;;;8.70;;
35558;SDS011;21661;50.794;-1.066;2023-05-02T10:06:41;15.93;;;8.95;;
35558;SDS011;21661;50.794;-1.066;2023-05-02T10:09:08;19.60;;;8.90;;
35558;SDS011;21661;50.794;-1.066;2023-05-02T10:11:36;16.50;;;8.60;;
35558;SDS011;21661;50.794;-1.066;2023-05-02T10:14:04;16.45;;;8.80;;
35558;SDS011;21661;50.794;-1.066;2023-05-02T10:16:33;15.77;;;8.15;;
35558;SDS011;21661;50.794;-1.066;2023-05-02T10:19:05;14.50;;;8.05;;
35558;SDS011;21661;50.794;-1.066;2023-05-02T10:21:33;16.55;;;7.72;;
35558;SDS011;21661;50.794;-1.066;2023-05-02T10:24:01;15.82;;;7.70;;
35558;SDS011;21661;50.794;-1.066;2023-05-02T10:26:28;15.77;;;7.82;;
35558;SDS011;21661;50.794;-1.066;2023-05-02T10:28:55;13.15;;;7.38;;
35558;SDS011;21661;50.794;-1.066;2023-05-02T10:31:21;13.35;;;8.23;;
35558;SDS011;21661;50.794;-1.066;2023-05-02T10:33:49;13.95;;;7.53;;
35558;SDS011;21661;50.794;-1.066;2023-05-02T10:36:19;11.63;;;7.63;;
35558;SDS011;21661;50.794;-1.066;2023-05-02T10:38:46;11.82;;;6.38;;
35558;SDS011;21661;50.794;-1.066;2023-05-02T10:41:23;13.25;;;6.57;;
35558;SDS011;21661;50.794;-1.066;2023-05-02T10:43:51;12.82;;;6.70;;
35558;SDS011;21661;50.794;-1.066;2023-05-02T10:46:33;13.93;;;7.40;;
35558;SDS011;21661;50.794;-1.066;2023-05-02T10:49:07;16.83;;;7.18;;
35558;SDS011;21661;50.794;-1.066;2023-05-02T10:51:38;13.70;;;8.33;;
35558;SDS011;21661;50.794;-1.066;2023-05-02T10:54:23;15.18;;;7.93;;
35558;SDS011;21661;50.794;-1.066;2023-05-02T10:59:28;16.55;;;7.80;;
35558;SDS011;21661;50.794;-1.066;2023-05-02T11:01:56;15.57;;;8.15;;
35558;SDS011;21661;50.794;-1.066;2023-05-02T11:04:22;14.75;;;7.78;;
35558;SDS011;21661;50.794;-1.066;2023-05-02T11:11:51;17.33;;;7.72;;
35558;SDS011;21661;50.794;-1.066;2023-05-02T11:19:22;16.10;;;5.38;;
35558;SDS011;21661;50.794;-1.066;2023-05-02T11:21:49;10.43;;;5.05;;
35558;SDS011;21661;50.794;-1.066;2023-05-02T11:29:54;17.00;;;4.95;;
35558;SDS011;21661;50.794;-1.066;2023-05-02T11:32:21;14.73;;;4.82;;
35558;SDS011;21661;50.794;-1.066;2023-05-02T11:34:47;15.45;;;5.15;;
35558;SDS011;21661;50.794;-1.066;2023-05-02T11:37:17;13.63;;;5.30;;
35558;SDS011;21661;50.794;-1.066;2023-05-02T11:39:45;19.48;;;4.75;;
35558;SDS011;21661;50.794;-1.066;2023-05-02T11:42:29;18.38;;;5.55;;
35558;SDS011;21661;50.794;-1.066;2023-05-02T11:44:56;13.73;;;4.90;;
35558;SDS011;21661;50.794;-1.066;2023-05-02T11:47:24;14.50;;;5.00;;
35558;SDS011;21661;50.794;-1.066;2023-05-02T11:49:54;17.45;;;5.28;;
35558;SDS011;21661;50.794;-1.066;2023-05-02T11:52:21;16.38;;;5.60;;
35558;SDS011;21661;50.794;-1.066;2023-05-02T11:54:48;19.55;;;5.25;;
35558;SDS011;21661;50.794;-1.066;2023-05-02T11:57:18;18.27;;;5.50;;
35558;SDS011;21661;50.794;-1.066;2023-05-02T12:00:01;12.40;;;5.13;;
35558;SDS011;21661;50.794;-1.066;2023-05-02T12:02:37;17.95;;;5.20;;
35558;SDS011;21661;50.794;-1.066;2023-05-02T12:05:08;15.55;;;5.70;;
35558;SDS011;21661;50.794;-1.066;2023-05-02T12:07:42;16.63;;;5.00;;
35558;SDS011;21661;50.794;-1.066;2023-05-02T12:10:10;20.27;;;5.93;;
35558;SDS011;21661;50.794;-1.066;2023-05-02T12:12:36;16.00;;;5.85;;
35558;SDS011;21661;50.794;-1.066;2023-05-02T12:15:04;19.88;;;6.32;;
35558;SDS011;21661;50.794;-1.066;2023-05-02T12:17:35;19.33;;;5.28;;
35558;SDS011;21661;50.794;-1.066;2023-05-02T12:20:03;21.42;;;6.00;;
35558;SDS011;21661;50.794;-1.066;2023-05-02T12:22:30;16.00;;;5.40;;
35558;SDS011;21661;50.794;-1.066;2023-05-02T12:24:56;20.15;;;6.07;;
35558;SDS011;21661;50.794;-1.066;2023-05-02T12:27:22;15.07;;;4.75;;
35558;SDS011;21661;50.794;-1.066;2023-05-02T12:29:48;11.25;;;4.93;;
35558;SDS011;21661;50.794;-1.066;2023-05-02T12:32:14;13.15;;;5.03;;
35558;SDS011;21661;50.794;-1.066;2023-05-02T12:34:50;18.25;;;5.80;;
35558;SDS011;21661;50.794;-1.066;2023-05-02T12:37:20;15.05;;;4.18;;
35558;SDS011;21661;50.794;-1.066;2023-05-02T12:39:48;14.95;;;4.65;;
35558;SDS011;21661;50.794;-1.066;2023-05-02T12:42:14;11.15;;;5.00;;
35558;SDS011;21661;50.794;-1.066;2023-05-02T12:44:42;14.77;;;3.95;;
35558;SDS011;21661;50.794;-1.066;2023-05-02T12:47:10;12.10;;;4.40;;
35558;SDS011;21661;50.794;-1.066;2023-05-02T12:49:55;11.57;;;4.68;;
35558;SDS011;21661;50.794;-1.066;2023-05-02T12:55:24;12.63;;;4.03;;
35558;SDS011;21661;50.794;-1.066;2023-05-02T12:57:58;11.02;;;4.07;;
35558;SDS011;21661;50.794;-1.066;2023-05-02T13:00:31;20.83;;;4.90;;
35558;SDS011;21661;50.794;-1.066;2023-05-02T13:03:00;13.40;;;3.63;;
35558;SDS011;21661;50.794;-1.066;2023-05-02T13:05:25;14.77;;;3.85;;
35558;SDS011;21661;50.794;-1.066;2023-05-02T13:07:51;14.15;;;4.03;;
35558;SDS011;21661;50.794;-1.066;2023-05-02T13:10:17;13.15;;;4.05;;
35558;SDS011;21661;50.794;-1.066;2023-05-02T13:12:43;14.70;;;4.78;;
35558;SDS011;21661;50.794;-1.066;2023-05-02T13:15:10;11.02;;;3.38;;
35558;SDS011;21661;50.794;-1.066;2023-05-02T13:17:37;14.50;;;4.68;;
35558;SDS011;21661;50.794;-1.066;2023-05-02T13:20:02;17.05;;;3.75;;
35558;SDS011;21661;50.794;-1.066;2023-05-02T13:22:28;10.20;;;3.40;;
35558;SDS011;21661;50.794;-1.066;2023-05-02T13:24:54;12.68;;;4.00;;
35558;SDS011;21661;50.794;-1.066;2023-05-02T13:27:21;14.43;;;3.63;;
35558;SDS011;21661;50.794;-1.066;2023-05-02T13:29:47;11.40;;;3.83;;
35558;SDS011;21661;50.794;-1.066;2023-05-02T13:32:14;10.88;;;4.18;;
35558;SDS011;21661;50.794;-1.066;2023-05-02T13:34:40;10.98;;;3.45;;
35558;SDS011;21661;50.794;-1.066;2023-05-02T13:37:06;11.63;;;3.55;;
35558;SDS011;21661;50.794;-1.066;2023-05-02T13:39:32;14.15;;;3.80;;
35558;SDS011;21661;50.794;-1.066;2023-05-02T13:41:57;14.88;;;3.53;;
35558;SDS011;21661;50.794;-1.066;2023-05-02T13:44:23;15.30;;;3.50;;
35558;SDS011;21661;50.794;-1.066;2023-05-02T13:46:49;10.32;;;3.17;;
35558;SDS011;21661;50.794;-1.066;2023-05-02T13:49:14;12.13;;;3.33;;
35558;SDS011;21661;50.794;-1.066;2023-05-02T13:51:40;10.50;;;3.53;;
35558;SDS011;21661;50.794;-1.066;2023-05-02T13:54:06;14.82;;;3.80;;
35558;SDS011;21661;50.794;-1.066;2023-05-02T13:56:31;11.77;;;3.00;;
35558;SDS011;21661;50.794;-1.066;2023-05-02T13:58:57;13.50;;;3.28;;
35558;SDS011;21661;50.794;-1.066;2023-05-02T14:01:22;13.52;;;3.05;;
35558;SDS011;21661;50.794;-1.066;2023-05-02T14:03:50;12.88;;;2.88;;
35558;SDS011;21661;50.794;-1.066;2023-05-02T14:06:16;12.73;;;3.13;;
35558;SDS011;21661;50.794;-1.066;2023-05-02T14:08:42;9.02;;;3.10;;
35558;SDS011;21661;50.794;-1.066;2023-05-02T14:11:08;12.13;;;2.90;;
35558;SDS011;21661;50.794;-1.066;2023-05-02T14:13:35;11.43;;;3.15;;
35558;SDS011;21661;50.794;-1.066;2023-05-02T14:16:01;11.80;;;3.10;;
35558;SDS011;21661;50.794;-1.066;2023-05-02T14:18:27;12.75;;;4.05;;
35558;SDS011;21661;50.794;-1.066;2023-05-02T14:20:52;10.38;;;3.63;;
35558;SDS011;21661;50.794;-1.066;2023-05-02T14:23:20;10.32;;;3.75;;
35558;SDS011;21661;50.794;-1.066;2023-05-02T14:25:45;10.85;;;3.85;;
35558;SDS011;21661;50.794;-1.066;2023-05-02T14:28:11;11.30;;;4.13;;
35558;SDS011;21661;50.794;-1.066;2023-05-02T14:30:37;7.72;;;4.15;;
35558;SDS011;21661;50.794;-1.066;2023-05-02T14:33:02;8.07;;;4.13;;
35558;SDS011;21661;50.794;-1.066;2023-05-02T14:35:28;11.98;;;5.13;;
35558;SDS011;21661;50.794;-1.066;2023-05-02T14:37:53;11.38;;;4.40;;
35558;SDS011;21661;50.794;-1.066;2023-05-02T14:40:19;10.82;;;4.75;;
35558;SDS011;21661;50.794;-1.066;2023-05-02T14:42:45;12.27;;;5.10;;
35558;SDS011;21661;50.794;-1.066;2023-05-02T14:45:10;13.07;;;5.95;;
35558;SDS011;21661;50.794;-1.066;2023-05-02T14:47:36;15.75;;;6.28;;
35558;SDS011;21661;50.794;-1.066;2023-05-02T14:50:02;13.55;;;5.78;;
35558;SDS011;21661;50.794;-1.066;2023-05-02T14:52:29;15.30;;;6.07;;
35558;SDS011;21661;50.794;-1.066;2023-05-02T14:54:57;12.95;;;5.88;;
35558;SDS011;21661;50.794;-1.066;2023-05-02T14:57:23;12.98;;;5.57;;
35558;SDS011;21661;50.794;-1.066;2023-05-02T14:59:49;15.88;;;5.97;;
35558;SDS011;21661;50.794;-1.066;2023-05-02T15:02:15;10.55;;;5.97;;
35558;SDS011;21661;50.794;-1.066;2023-05-02T15:04:40;16.05;;;6.40;;
35558;SDS011;21661;50.794;-1.066;2023-05-02T15:07:06;10.68;;;6.60;;